Time;durP1;ratioP1;P1;durP2;ratioP2;P2;SDS_P1;SDS_P2;PMS_P1;PMS_P2;Temp;Humidity;BMP_temperature;BMP_pressure;BME280_temperature;BME280_humidity;BME280_pressure;Samples;Min_cycle;Max_cycle;Signal;HPM_P1;HPM_P2
2023/05/07 00:02:22;;;;;;;;;;;;;;;15.32;100.00;-18439.94;4967854;28;19937;-84
2023/05/07 00:04:48;;;;;;;;;;;;;;;15.38;100.00;-18441.56;4965155;28;19965;-84
2023/05/07 00:07:13;;;;;;;;;;;;;;;15.29;100.00;-18439.25;4968799;28;20406;-83
2023/05/07 00:09:39;;;;;;;;;;;;;;;15.33;100.00;-18440.34;4967831;28;20431;-83
2023/05/07 00:12:05;;;;;;;;;;;;;;;15.29;100.00;-18439.13;4970498;28;19928;-84
2023/05/07 00:14:30;;;;;;;;;;;;;;;15.26;100.00;-18438.28;4972356;28;20290;-83
2023/05/07 00:16:55;;;;;;;;;;;;;;;15.16;100.00;-18435.69;4972794;28;19918;-84
2023/05/07 00:19:21;;;;;;;;;;;;;;;15.24;100.00;-18437.88;4983812;28;20341;-85
2023/05/07 00:21:46;;;;;;;;;;;;;;;15.46;100.00;-18443.75;4968515;28;20385;-83
2023/05/07 00:24:11;;;;;;;;;;;;;;;15.22;100.00;-18437.19;4987019;28;20401;-83
2023/05/07 00:26:37;;;;;;;;;;;;;;;15.17;100.00;-18435.84;4970746;28;19922;-84
2023/05/07 00:29:02;;;;;;;;;;;;;;;15.19;100.00;-18436.38;4969264;28;19918;-84
2023/05/07 00:31:27;;;;;;;;;;;;;;;15.24;100.00;-18437.88;4971518;28;19996;-83
2023/05/07 00:33:52;;;;;;;;;;;;;;;15.09;100.00;-18433.78;4971352;28;19926;-84
2023/05/07 00:36:18;;;;;;;;;;;;;;;14.96;100.00;-18430.34;4970020;28;19945;-83
2023/05/07 00:38:43;;;;;;;;;;;;;;;15.12;100.00;-18434.72;4969723;28;19922;-84
2023/05/07 00:41:08;;;;;;;;;;;;;;;15.18;100.00;-18436.25;4979174;28;19914;-83
2023/05/07 00:43:33;;;;;;;;;;;;;;;15.25;100.00;-18438.16;4970670;28;19918;-84
2023/05/07 00:45:59;;;;;;;;;;;;;;;15.04;100.00;-18432.53;4972428;28;19921;-83
2023/05/07 00:48:24;;;;;;;;;;;;;;;15.04;100.00;-18432.53;4974405;28;20400;-83
2023/05/07 00:50:50;;;;;;;;;;;;;;;15.22;100.00;-18437.19;4969729;28;20610;-84
2023/05/07 00:53:15;;;;;;;;;;;;;;;15.27;100.00;-18438.69;4971980;28;20285;-84
2023/05/07 00:55:40;;;;;;;;;;;;;;;15.21;100.00;-18436.94;4972384;28;19973;-82
2023/05/07 00:58:06;;;;;;;;;;;;;;;15.25;100.00;-18438.16;4969635;28;19925;-84
2023/05/07 01:00:31;;;;;;;;;;;;;;;15.21;100.00;-18437.06;4967952;28;20271;-83
2023/05/07 01:02:57;;;;;;;;;;;;;;;15.14;100.00;-18435.00;4965336;28;20000;-84
2023/05/07 01:05:23;;;;;;;;;;;;;;;15.22;100.00;-18437.19;4971355;28;19942;-84
2023/05/07 01:07:49;;;;;;;;;;;;;;;15.20;100.00;-18436.66;4978010;28;20402;-84
2023/05/07 01:10:15;;;;;;;;;;;;;;;15.32;100.00;-18439.94;4985199;28;19918;-84
2023/05/07 01:12:41;;;;;;;;;;;;;;;15.15;100.00;-18435.28;4983451;28;20290;-81
2023/05/07 01:15:07;;;;;;;;;;;;;;;15.17;100.00;-18435.84;4972436;28;19914;-82
2023/05/07 01:17:35;;;;;;;;;;;;;;;15.09;100.00;-18433.91;4967629;28;19941;-84
2023/05/07 01:20:00;;;;;;;;;;;;;;;15.04;100.00;-18432.41;4963038;28;19922;-84
2023/05/07 01:22:36;;;;;;;;;;;;;;;15.21;100.00;-18436.94;4966881;28;19921;-83
2023/05/07 01:25:02;;;;;;;;;;;;;;;14.99;100.00;-18431.03;4990586;28;20584;-84
2023/05/07 01:27:27;;;;;;;;;;;;;;;14.93;100.00;-18429.41;4958432;28;19993;-84
2023/05/07 01:29:53;;;;;;;;;;;;;;;14.75;100.00;-18424.75;4974531;28;19993;-84
2023/05/07 01:32:25;;;;;;;;;;;;;;;14.82;100.00;-18426.66;4982822;28;19964;-83
2023/05/07 01:34:51;;;;;;;;;;;;;;;14.77;100.00;-18425.16;4968258;28;19914;-83
2023/05/07 01:37:16;;;;;;;;;;;;;;;14.70;100.00;-18423.38;4966684;28;19925;-83
2023/05/07 01:39:42;;;;;;;;;;;;;;;14.69;100.00;-18423.09;4974892;28;19914;-84
2023/05/07 01:42:07;;;;;;;;;;;;;;;14.72;100.00;-18423.78;4965716;28;19918;-84
2023/05/07 01:44:33;;;;;;;;;;;;;;;14.79;100.00;-18425.72;4968707;28;20405;-83
2023/05/07 01:46:59;;;;;;;;;;;;;;;14.75;100.00;-18424.59;4968996;28;19917;-84
2023/05/07 01:49:24;;;;;;;;;;;;;;;14.75;100.00;-18424.59;4977509;28;19914;-84
2023/05/07 01:51:50;;;;;;;;;;;;;;;14.63;100.00;-18421.47;4966242;28;19962;-84
2023/05/07 01:54:16;;;;;;;;;;;;;;;14.72;100.00;-18423.78;4970121;28;19914;-83
2023/05/07 01:56:41;;;;;;;;;;;;;;;14.74;100.00;-18424.34;4955638;28;19921;-83
2023/05/07 01:59:06;;;;;;;;;;;;;;;14.87;100.00;-18428.03;4968518;28;19929;-82
2023/05/07 02:01:32;;;;;;;;;;;;;;;14.79;100.00;-18425.72;4987512;28;19922;-84
2023/05/07 02:03:57;;;;;;;;;;;;;;;14.83;100.00;-18426.81;4984250;28;20441;-85
2023/05/07 02:06:22;;;;;;;;;;;;;;;14.74;100.00;-18424.47;4969382;28;19918;-84
2023/05/07 02:08:47;;;;;;;;;;;;;;;14.78;100.00;-18425.44;4969662;28;19986;-85
2023/05/07 02:11:13;;;;;;;;;;;;;;;14.84;100.00;-18427.06;4975960;28;19992;-84
2023/05/07 02:13:38;;;;;;;;;;;;;;;14.82;100.00;-18426.53;4970653;28;19972;-85
2023/05/07 02:16:03;;;;;;;;;;;;;;;14.78;100.00;-18425.56;4968418;28;19923;-84
2023/05/07 02:18:29;;;;;;;;;;;;;;;14.87;100.00;-18427.91;4975876;28;20004;-84
2023/05/07 02:20:54;;;;;;;;;;;;;;;14.77;100.00;-18425.16;4970257;28;20313;-85
2023/05/07 02:23:20;;;;;;;;;;;;;;;14.91;100.00;-18429.00;4984076;28;19953;-84
2023/05/07 02:25:45;;;;;;;;;;;;;;;14.97;100.00;-18430.63;4962510;28;20860;-85
2023/05/07 02:28:11;;;;;;;;;;;;;;;14.83;100.00;-18426.81;4969039;28;19960;-84
2023/05/07 02:30:37;;;;;;;;;;;;;;;14.80;100.00;-18425.97;4969873;28;19965;-86
2023/05/07 02:33:02;;;;;;;;;;;;;;;14.80;100.00;-18425.97;4967510;28;19980;-84
2023/05/07 02:35:27;;;;;;;;;;;;;;;14.75;100.00;-18424.59;4970398;28;19992;-85
2023/05/07 02:37:52;;;;;;;;;;;;;;;14.72;100.00;-18423.78;4967614;28;20442;-86
2023/05/07 02:40:18;;;;;;;;;;;;;;;14.66;100.00;-18422.28;4968783;28;20398;-84
2023/05/07 02:42:43;;;;;;;;;;;;;;;14.72;100.00;-18423.78;4967731;28;19918;-85
2023/05/07 02:45:09;;;;;;;;;;;;;;;14.79;100.00;-18425.84;4984812;28;20012;-85
2023/05/07 02:47:34;;;;;;;;;;;;;;;14.92;100.00;-18429.25;4968592;28;19969;-84
2023/05/07 02:49:59;;;;;;;;;;;;;;;14.76;100.00;-18425.03;4953143;28;19941;-85
2023/05/07 02:52:24;;;;;;;;;;;;;;;14.68;100.00;-18422.84;4967944;28;19918;-84
2023/05/07 02:54:50;;;;;;;;;;;;;;;14.55;100.00;-18419.28;4961050;28;19921;-85
2023/05/07 02:57:15;;;;;;;;;;;;;;;14.55;100.00;-18419.41;4958023;28;19918;-86
2023/05/07 02:59:41;;;;;;;;;;;;;;;14.61;100.00;-18421.06;4968684;28;20354;-84
2023/05/07 03:02:06;;;;;;;;;;;;;;;14.58;100.00;-18420.22;4968871;28;19914;-84
2023/05/07 03:04:31;;;;;;;;;;;;;;;14.54;100.00;-18419.13;4963838;28;19925;-85
2023/05/07 03:06:57;;;;;;;;;;;;;;;14.53;100.00;-18418.72;4981686;28;19914;-84
2023/05/07 03:09:22;;;;;;;;;;;;;;;14.49;100.00;-18417.75;4968006;28;19926;-84
2023/05/07 03:11:47;;;;;;;;;;;;;;;14.56;100.00;-18419.69;4968215;28;20012;-84
2023/05/07 03:14:12;;;;;;;;;;;;;;;14.40;100.00;-18415.28;4969670;28;19971;-84
2023/05/07 03:16:38;;;;;;;;;;;;;;;14.44;100.00;-18416.38;4973605;28;20610;-85
2023/05/07 03:19:03;;;;;;;;;;;;;;;14.40;100.00;-18415.28;4985102;28;19943;-84
2023/05/07 03:21:28;;;;;;;;;;;;;;;14.44;100.00;-18416.38;4964920;28;19914;-86
2023/05/07 03:23:53;;;;;;;;;;;;;;;14.44;100.00;-18416.53;4967696;28;19934;-84
2023/05/07 03:26:19;;;;;;;;;;;;;;;14.25;100.00;-18411.19;4966588;28;20005;-84
2023/05/07 03:28:45;;;;;;;;;;;;;;;14.22;100.00;-18410.63;4961510;28;20846;-85
2023/05/07 03:31:10;;;;;;;;;;;;;;;14.53;100.00;-18418.88;4967306;28;19918;-84
2023/05/07 03:33:38;;;;;;;;;;;;;;;14.09;100.00;-18407.06;4974480;28;19937;-84
2023/05/07 03:36:04;;;;;;;;;;;;;;;14.06;100.00;-18406.25;4967177;28;20487;-86
2023/05/07 03:38:29;;;;;;;;;;;;;;;14.09;100.00;-18407.06;4966347;28;19961;-84
2023/05/07 03:40:55;;;;;;;;;;;;;;;14.08;100.00;-18406.66;4968972;28;19925;-84
2023/05/07 03:43:20;;;;;;;;;;;;;;;14.11;100.00;-18407.50;4971044;28;19948;-85
2023/05/07 03:45:45;;;;;;;;;;;;;;;13.97;100.00;-18403.78;4973572;28;20062;-85
2023/05/07 03:48:10;;;;;;;;;;;;;;;13.90;100.00;-18401.88;4972597;28;20330;-84
2023/05/07 03:50:36;;;;;;;;;;;;;;;13.87;100.00;-18401.19;4973925;28;20396;-85
2023/05/07 03:53:01;;;;;;;;;;;;;;;13.77;100.00;-18398.44;4972290;28;20349;-84
2023/05/07 03:55:26;;;;;;;;;;;;;;;13.82;100.00;-18399.69;4974112;28;19918;-86
2023/05/07 03:57:51;;;;;;;;;;;;;;;13.67;100.00;-18395.84;4980410;28;19921;-85
2023/05/07 04:00:17;;;;;;;;;;;;;;;13.65;100.00;-18395.31;4970131;28;19914;-84
2023/05/07 04:02:42;;;;;;;;;;;;;;;13.68;100.00;-18396.00;4974099;28;19921;-84
2023/05/07 04:05:08;;;;;;;;;;;;;;;13.65;100.00;-18395.31;4971070;28;19914;-86
2023/05/07 04:07:33;;;;;;;;;;;;;;;13.68;100.00;-18396.00;4985690;28;19917;-85
2023/05/07 04:09:58;;;;;;;;;;;;;;;13.65;100.00;-18395.16;4973059;28;19988;-85
2023/05/07 04:12:23;;;;;;;;;;;;;;;13.62;100.00;-18394.34;4978275;28;19914;-85
2023/05/07 04:14:48;;;;;;;;;;;;;;;13.59;100.00;-18393.53;4979652;28;19944;-85
2023/05/07 04:17:14;;;;;;;;;;;;;;;13.51;100.00;-18391.47;4973756;28;19918;-85
2023/05/07 04:19:39;;;;;;;;;;;;;;;13.67;100.00;-18395.72;4968896;28;19973;-84
2023/05/07 04:22:04;;;;;;;;;;;;;;;13.62;100.00;-18394.34;4983523;28;20293;-85
2023/05/07 04:24:33;;;;;;;;;;;;;;;13.64;100.00;-18395.03;4970513;28;19914;-84
2023/05/07 04:26:58;;;;;;;;;;;;;;;13.67;100.00;-18395.84;4975119;28;19921;-84
2023/05/07 04:29:23;;;;;;;;;;;;;;;13.60;100.00;-18393.94;4973999;28;19918;-84
2023/05/07 04:31:49;;;;;;;;;;;;;;;13.59;100.00;-18393.66;4970910;28;20016;-85
2023/05/07 04:34:14;;;;;;;;;;;;;;;13.69;100.00;-18396.41;4971308;28;19921;-84
2023/05/07 04:36:39;;;;;;;;;;;;;;;13.77;100.00;-18398.44;4970723;28;19993;-85
2023/05/07 04:39:05;;;;;;;;;;;;;;;13.72;100.00;-18397.22;4970104;28;19914;-85
2023/05/07 04:41:30;;;;;;;;;;;;;;;13.68;100.00;-18396.00;4972642;28;19965;-85
2023/05/07 04:43:56;;;;;;;;;;;;;;;13.75;100.00;-18398.03;4971402;28;19964;-85
2023/05/07 04:46:22;;;;;;;;;;;;;;;13.90;100.00;-18402.00;4972335;28;19965;-85
2023/05/07 04:48:47;;;;;;;;;;;;;;;14.00;100.00;-18404.75;4979727;28;19918;-85
2023/05/07 04:51:12;;;;;;;;;;;;;;;13.86;100.00;-18400.78;4971730;28;19968;-85
2023/05/07 04:53:37;;;;;;;;;;;;;;;14.08;100.00;-18406.66;4976465;28;20013;-84
2023/05/07 04:56:03;;;;;;;;;;;;;;;13.82;100.00;-18399.81;4969563;28;19948;-84
2023/05/07 04:58:31;;;;;;;;;;;;;;;13.78;100.00;-18398.72;4972367;28;19942;-85
2023/05/07 05:00:56;;;;;;;;;;;;;;;13.84;100.00;-18400.22;4981715;28;19956;-84
2023/05/07 05:03:21;;;;;;;;;;;;;;;13.77;100.00;-18398.59;4972375;28;19949;-84
2023/05/07 05:05:48;;;;;;;;;;;;;;;13.92;100.00;-18402.56;4969170;28;19929;-85
2023/05/07 05:08:13;;;;;;;;;;;;;;;13.86;100.00;-18400.78;4971664;28;19914;-85
2023/05/07 05:10:39;;;;;;;;;;;;;;;13.85;100.00;-18400.66;4965332;28;19914;-84
2023/05/07 05:13:04;;;;;;;;;;;;;;;13.86;100.00;-18400.78;4972174;28;19921;-85
2023/05/07 05:15:29;;;;;;;;;;;;;;;13.94;100.00;-18402.97;4970111;28;19921;-85
2023/05/07 05:17:55;;;;;;;;;;;;;;;13.85;100.00;-18400.50;4972465;28;19917;-85
2023/05/07 05:20:20;;;;;;;;;;;;;;;13.72;100.00;-18397.22;4970810;28;19965;-84
2023/05/07 05:22:45;;;;;;;;;;;;;;;13.72;100.00;-18397.22;4970831;28;19960;-84
2023/05/07 05:25:10;;;;;;;;;;;;;;;13.71;100.00;-18396.94;4973329;28;19914;-85
2023/05/07 05:27:36;;;;;;;;;;;;;;;13.84;100.00;-18400.38;4976898;28;19992;-84
2023/05/07 05:30:01;;;;;;;;;;;;;;;13.91;100.00;-18402.28;4970658;28;20493;-84
2023/05/07 05:32:26;;;;;;;;;;;;;;;13.80;100.00;-18399.13;4970198;28;19921;-86
2023/05/07 05:34:52;;;;;;;;;;;;;;;13.91;100.00;-18402.16;4970162;28;19914;-85
2023/05/07 05:37:17;;;;;;;;;;;;;;;13.83;100.00;-18399.97;4966923;28;19926;-84
2023/05/07 05:39:42;;;;;;;;;;;;;;;13.85;100.00;-18400.50;4978100;28;19918;-85
2023/05/07 05:42:07;;;;;;;;;;;;;;;13.95;100.00;-18403.25;4970983;28;19914;-85
2023/05/07 05:44:33;;;;;;;;;;;;;;;13.84;100.00;-18400.38;4983728;28;19953;-85
2023/05/07 05:46:59;;;;;;;;;;;;;;;13.88;100.00;-18401.31;4971618;28;19918;-85
2023/05/07 05:49:24;;;;;;;;;;;;;;;13.95;100.00;-18403.25;4971561;28;19937;-85
2023/05/07 05:51:49;;;;;;;;;;;;;;;14.00;100.00;-18404.63;4984699;28;20134;-85
2023/05/07 05:54:15;;;;;;;;;;;;;;;14.06;100.00;-18406.13;4987229;28;19914;-85
2023/05/07 05:56:40;;;;;;;;;;;;;;;14.18;100.00;-18409.56;4970170;28;19937;-85
2023/05/07 05:59:05;;;;;;;;;;;;;;;14.25;100.00;-18411.19;4969958;28;19922;-85
2023/05/07 06:01:31;;;;;;;;;;;;;;;14.42;100.00;-18415.84;4970128;28;19918;-84
2023/05/07 06:03:56;;;;;;;;;;;;;;;14.56;100.00;-18419.53;4966182;28;19917;-84
2023/05/07 06:06:21;;;;;;;;;;;;;;;14.18;100.00;-18409.41;4968051;28;20390;-84
2023/05/07 06:08:46;;;;;;;;;;;;;;;14.22;100.00;-18410.63;4968708;28;19922;-84
2023/05/07 06:11:12;;;;;;;;;;;;;;;14.26;100.00;-18411.59;4968603;28;19921;-86
2023/05/07 06:13:37;;;;;;;;;;;;;;;14.33;100.00;-18413.38;4969499;28;19932;-85
2023/05/07 06:16:02;;;;;;;;;;;;;;;14.34;100.00;-18413.66;4974888;28;19918;-85
2023/05/07 06:18:27;;;;;;;;;;;;;;;14.23;100.00;-18410.78;4962881;28;19977;-85
2023/05/07 06:20:53;;;;;;;;;;;;;;;14.35;100.00;-18414.06;4966447;28;19918;-85
2023/05/07 06:23:18;;;;;;;;;;;;;;;14.39;100.00;-18415.03;4965177;28;21157;-86
2023/05/07 06:25:52;;;;;;;;;;;;;;;14.43;100.00;-18416.25;4965149;28;20285;-85
2023/05/07 06:28:17;;;;;;;;;;;;;;;14.69;100.00;-18423.09;4964148;28;19914;-85
2023/05/07 06:30:43;;;;;;;;;;;;;;;14.64;100.00;-18421.88;4975315;28;19918;-85
2023/05/07 06:33:08;;;;;;;;;;;;;;;14.79;100.00;-18425.72;4983622;28;19957;-86
2023/05/07 06:35:33;;;;;;;;;;;;;;;14.88;100.00;-18428.31;4962207;28;19917;-85
2023/05/07 06:37:59;;;;;;;;;;;;;;;14.92;100.00;-18429.13;4984754;28;20013;-86
2023/05/07 06:40:24;;;;;;;;;;;;;;;15.06;100.00;-18432.97;4969838;28;19914;-87
2023/05/07 06:42:50;;;;;;;;;;;;;;;15.00;100.00;-18431.31;4970941;28;19928;-86
2023/05/07 06:45:15;;;;;;;;;;;;;;;15.12;100.00;-18434.72;4975244;28;20530;-85
2023/05/07 06:47:40;;;;;;;;;;;;;;;15.10;100.00;-18434.06;4974838;28;19914;-85
2023/05/07 06:50:06;;;;;;;;;;;;;;;15.08;100.00;-18433.50;4991786;28;19920;-85
2023/05/07 06:52:31;;;;;;;;;;;;;;;15.23;100.00;-18437.47;4969830;28;20305;-85
2023/05/07 06:54:56;;;;;;;;;;;;;;;15.29;100.00;-18439.13;4975370;28;19922;-85
2023/05/07 06:57:22;;;;;;;;;;;;;;;15.31;100.00;-18439.66;4970984;28;20304;-84
2023/05/07 06:59:47;;;;;;;;;;;;;;;15.42;100.00;-18442.66;4969592;28;19964;-84
2023/05/07 07:02:12;;;;;;;;;;;;;;;15.31;100.00;-18439.78;4967850;28;20586;-83
2023/05/07 07:04:37;;;;;;;;;;;;;;;15.39;100.00;-18441.84;4975451;28;20021;-83
2023/05/07 07:07:03;;;;;;;;;;;;;;;15.45;100.00;-18443.34;4960964;28;20004;-84
2023/05/07 07:09:28;;;;;;;;;;;;;;;15.53;100.00;-18445.69;4978584;28;19928;-83
2023/05/07 07:11:54;;;;;;;;;;;;;;;15.69;100.00;-18449.78;4984452;28;19926;-84
2023/05/07 07:14:20;;;;;;;;;;;;;;;15.68;100.00;-18449.50;4972213;28;19922;-84
2023/05/07 07:16:46;;;;;;;;;;;;;;;15.72;100.00;-18450.75;4988286;28;19948;-84
2023/05/07 07:19:11;;;;;;;;;;;;;;;15.62;100.00;-18447.88;4975813;28;19992;-85
2023/05/07 07:21:37;;;;;;;;;;;;;;;15.76;100.00;-18451.69;4976042;28;20370;-83
2023/05/07 07:24:02;;;;;;;;;;;;;;;15.84;100.00;-18453.88;4969084;28;19925;-84
2023/05/07 07:26:27;;;;;;;;;;;;;;;15.81;100.00;-18453.06;4989366;28;19921;-84
2023/05/07 07:28:52;;;;;;;;;;;;;;;15.95;100.00;-18456.75;4981227;28;19949;-84
2023/05/07 07:31:18;;;;;;;;;;;;;;;15.96;100.00;-18457.16;4979271;28;19914;-84
2023/05/07 07:33:43;;;;;;;;;;;;;;;15.83;100.00;-18453.47;4986594;28;19914;-84
2023/05/07 07:36:09;;;;;;;;;;;;;;;15.82;100.00;-18453.34;4969741;28;19922;-85
2023/05/07 07:38:34;;;;;;;;;;;;;;;15.85;100.00;-18454.16;4972959;28;20018;-84
2023/05/07 07:41:00;;;;;;;;;;;;;;;15.72;100.00;-18450.75;4984003;28;19914;-84
2023/05/07 07:43:25;;;;;;;;;;;;;;;15.92;100.00;-18456.06;4971044;28;19921;-83
2023/05/07 07:45:51;;;;;;;;;;;;;;;15.90;100.00;-18455.38;4990262;28;19917;-87
2023/05/07 07:48:16;;;;;;;;;;;;;;;15.95;100.00;-18456.91;4972340;28;20009;-85
2023/05/07 07:50:41;;;;;;;;;;;;;;;16.07;100.00;-18459.91;4963940;28;19922;-85
2023/05/07 07:53:06;;;;;;;;;;;;;;;16.02;100.00;-18458.81;4975641;28;20373;-85
2023/05/07 07:55:32;;;;;;;;;;;;;;;16.06;100.00;-18459.63;4972738;28;19918;-85
2023/05/07 07:57:57;;;;;;;;;;;;;;;16.20;100.00;-18463.59;4973874;28;19929;-87
2023/05/07 08:00:22;;;;;;;;;;;;;;;16.11;100.00;-18461.00;4967589;28;19957;-85
2023/05/07 08:02:48;;;;;;;;;;;;;;;16.16;100.00;-18462.50;4990064;28;19932;-86
2023/05/07 08:05:13;;;;;;;;;;;;;;;16.29;100.00;-18465.91;4986051;28;20568;-86
2023/05/07 08:07:38;;;;;;;;;;;;;;;16.39;100.00;-18468.66;4977544;28;19914;-85
2023/05/07 08:10:04;;;;;;;;;;;;;;;16.52;100.00;-18471.94;4986247;28;19925;-87
2023/05/07 08:12:29;;;;;;;;;;;;;;;16.67;100.00;-18476.03;4984357;28;20057;-86
2023/05/07 08:14:54;;;;;;;;;;;;;;;16.72;100.00;-18477.41;4982149;28;20289;-85
2023/05/07 08:17:21;;;;;;;;;;;;;;;16.76;100.00;-18478.50;4993273;28;19918;-86
2023/05/07 08:19:47;;;;;;;;;;;;;;;16.87;100.00;-18481.50;4991343;28;19915;-85
2023/05/07 08:22:12;;;;;;;;;;;;;;;16.79;100.00;-18479.31;4976593;28;19929;-86
2023/05/07 08:24:37;;;;;;;;;;;;;;;17.21;100.00;-18490.38;4974270;28;19920;-86
2023/05/07 08:27:03;;;;;;;;;;;;;;;17.04;100.00;-18485.88;4973613;28;19924;-85
2023/05/07 08:29:28;;;;;;;;;;;;;;;17.16;100.00;-18489.00;4973936;28;19918;-87
2023/05/07 08:31:53;;;;;;;;;;;;;;;17.00;100.00;-18484.78;4974208;28;19914;-85
2023/05/07 08:34:19;;;;;;;;;;;;;;;17.09;100.00;-18487.22;4979807;28;19921;-86
2023/05/07 08:36:46;;;;;;;;;;;;;;;17.22;100.00;-18490.78;4982398;28;19925;-85
2023/05/07 08:39:11;;;;;;;;;;;;;;;17.59;100.00;-18500.75;4981602;28;19945;-85
2023/05/07 08:41:37;;;;;;;;;;;;;;;17.44;100.00;-18496.50;4977525;28;19917;-85
2023/05/07 08:44:03;;;;;;;;;;;;;;;17.61;100.00;-18501.16;4988667;28;19914;-86
2023/05/07 08:46:30;;;;;;;;;;;;;;;17.77;100.00;-18505.53;4977764;28;19922;-84
2023/05/07 08:48:55;;;;;;;;;;;;;;;17.77;100.00;-18505.53;4972386;28;19968;-85
2023/05/07 08:51:21;;;;;;;;;;;;;;;17.96;100.00;-18510.44;4992457;28;19918;-86
2023/05/07 08:53:48;;;;;;;;;;;;;;;18.08;100.00;-18513.72;4972697;28;20645;-85
2023/05/07 08:56:15;;;;;;;;;;;;;;;18.16;100.00;-18515.91;4982752;28;19925;-88
2023/05/07 08:58:40;;;;;;;;;;;;;;;18.43;100.00;-18522.97;4960576;28;19915;-85
2023/05/07 09:01:10;;;;;;;;;;;;;;;18.39;100.00;-18521.91;4974196;28;19918;-86
2023/05/07 09:03:37;;;;;;;;;;;;;;;18.40;100.00;-18522.16;4975603;28;19921;-89
2023/05/07 09:06:02;;;;;;;;;;;;;;;18.55;100.00;-18526.25;4973905;28;19933;-86
2023/05/07 09:08:27;;;;;;;;;;;;;;;18.78;100.00;-18532.25;4977121;28;19918;-88
2023/05/07 09:10:53;;;;;;;;;;;;;;;18.78;100.00;-18532.41;4982175;28;20405;-85
2023/05/07 09:13:19;;;;;;;;;;;;;;;18.69;100.00;-18530.06;4976882;28;19917;-86
2023/05/07 09:15:44;;;;;;;;;;;;;;;18.83;100.00;-18533.75;4981855;28;19930;-85
2023/05/07 09:18:09;;;;;;;;;;;;;;;19.08;100.00;-18540.44;4977470;28;20438;-84
2023/05/07 09:20:36;;;;;;;;;;;;;;;19.21;100.00;-18543.72;4979419;28;19917;-84
2023/05/07 09:23:01;;;;;;;;;;;;;;;19.24;100.00;-18544.53;4981836;28;19949;-85
2023/05/07 09:25:33;;;;;;;;;;;;;;;19.37;100.00;-18548.06;4970529;28;20297;-86
2023/05/07 09:27:59;;;;;;;;;;;;;;;19.39;100.00;-18548.59;4968491;28;19933;-85
2023/05/07 09:30:29;;;;;;;;;;;;;;;19.54;100.00;-18552.56;4967226;28;19929;-85
2023/05/07 09:32:54;;;;;;;;;;;;;;;19.59;100.00;-18553.91;4976596;28;19918;-87
2023/05/07 09:35:21;;;;;;;;;;;;;;;19.76;100.00;-18558.41;4966421;28;19924;-84
2023/05/07 09:37:46;;;;;;;;;;;;;;;19.84;100.00;-18560.75;4967519;28;19926;-84
2023/05/07 09:40:30;;;;;;;;;;;;;;;19.88;100.00;-18561.56;4968879;28;19925;-86
2023/05/07 09:42:56;;;;;;;;;;;;;;;19.73;100.00;-18557.59;4968280;28;19922;-86
2023/05/07 09:45:31;;;;;;;;;;;;;;;19.88;100.00;-18561.69;4970220;28;19924;-85
2023/05/07 09:47:57;;;;;;;;;;;;;;;19.92;100.00;-18562.78;4963936;28;19981;-84
2023/05/07 09:50:27;;;;;;;;;;;;;;;20.18;100.00;-18569.72;4957223;28;19922;-85
2023/05/07 09:52:53;;;;;;;;;;;;;;;20.24;100.00;-18571.22;4971935;28;19949;-86
2023/05/07 09:55:19;;;;;;;;;;;;;;;20.48;100.00;-18577.75;4963191;28;19949;-86
2023/05/07 09:57:44;;;;;;;;;;;;;;;20.59;100.00;-18580.47;4969109;28;20328;-87
2023/05/07 10:00:10;;;;;;;;;;;;;;;20.60;100.00;-18580.88;4977346;28;20005;-86
2023/05/07 10:02:36;;;;;;;;;;;;;;;20.94;100.00;-18590.00;4969189;28;19925;-85
2023/05/07 10:05:02;;;;;;;;;;;;;;;21.17;100.00;-18595.97;4956607;28;20389;-84
2023/05/07 10:07:28;;;;;;;;;;;;;;;20.74;100.00;-18584.56;4983516;28;19918;-83
2023/05/07 10:09:54;;;;;;;;;;;;;;;20.78;100.00;-18585.66;4969533;28;19925;-84
2023/05/07 10:12:20;;;;;;;;;;;;;;;21.02;100.00;-18592.03;4974582;28;19969;-84
2023/05/07 10:14:45;;;;;;;;;;;;;;;21.27;100.00;-18598.56;4969365;28;19918;-84
2023/05/07 10:17:11;;;;;;;;;;;;;;;20.92;100.00;-18589.47;4974296;28;19991;-83
2023/05/07 10:19:37;;;;;;;;;;;;;;;21.07;100.00;-18593.25;4969975;28;19918;-86
2023/05/07 10:22:04;;;;;;;;;;;;;;;21.14;100.00;-18595.16;4970558;28;20271;-84
2023/05/07 10:24:32;;;;;;;;;;;;;;;21.24;100.00;-18597.88;4972767;28;20057;-84
2023/05/07 10:26:59;;;;;;;;;;;;;;;21.26;100.00;-18598.28;4969946;28;20048;-83
2023/05/07 10:29:24;;;;;;;;;;;;;;;21.14;100.00;-18595.16;4967971;28;19920;-84
2023/05/07 10:31:59;;;;;;;;;;;;;;;21.15;100.00;-18595.56;4984765;28;20506;-84
2023/05/07 10:34:27;;;;;;;;;;;;;;;21.24;100.00;-18597.88;4974329;28;20344;-82
2023/05/07 10:36:54;;;;;;;;;;;;;;;21.23;100.00;-18597.47;4968070;28;19918;-84
2023/05/07 10:39:21;;;;;;;;;;;;;;;21.27;100.00;-18598.56;4962350;28;20380;-84
2023/05/07 10:41:46;;;;;;;;;;;;;;;21.24;100.00;-18597.88;4972287;28;19969;-84
2023/05/07 10:44:11;;;;;;;;;;;;;;;21.25;100.00;-18598.16;4981089;28;20007;-83
2023/05/07 10:46:37;;;;;;;;;;;;;;;21.43;100.00;-18602.78;4982758;28;19914;-83
2023/05/07 10:49:08;;;;;;;;;;;;;;;21.60;100.00;-18607.53;4984161;28;19924;-84
2023/05/07 10:51:33;;;;;;;;;;;;;;;21.66;100.00;-18609.03;4977882;28;19917;-82
2023/05/07 10:54:11;;;;;;;;;;;;;;;21.65;100.00;-18608.75;4969962;28;20393;-83
2023/05/07 10:56:43;;;;;;;;;;;;;;;21.66;100.00;-18608.91;4993630;28;19932;-84
2023/05/07 10:59:20;;;;;;;;;;;;;;;21.81;100.00;-18613.13;4962956;28;19915;-83
2023/05/07 11:01:58;;;;;;;;;;;;;;;21.79;100.00;-18612.56;4978201;28;19922;-82
2023/05/07 11:04:26;;;;;;;;;;;;;;;21.94;100.00;-18616.50;4977347;28;19926;-83
2023/05/07 11:07:06;;;;;;;;;;;;;;;22.18;100.00;-18622.75;4981660;28;19922;-84
2023/05/07 11:10:04;;;;;;;;;;;;;;;22.16;100.00;-18622.34;4979411;28;19920;-81
2023/05/07 11:12:35;;;;;;;;;;;;;;;22.22;100.00;-18623.84;4942473;28;20008;-84
2023/05/07 11:15:01;;;;;;;;;;;;;;;21.96;100.00;-18616.91;4976123;28;19918;-84
2023/05/07 11:17:27;;;;;;;;;;;;;;;22.11;100.00;-18621.00;4978859;28;20025;-83
2023/05/07 11:19:53;;;;;;;;;;;;;;;22.15;100.00;-18621.94;4971627;28;19941;-83
2023/05/07 11:22:45;;;;;;;;;;;;;;;22.23;100.00;-18624.13;4970732;28;19918;-82
2023/05/07 11:25:10;;;;;;;;;;;;;;;22.03;100.00;-18618.81;4984841;28;20278;-81
2023/05/07 11:27:36;;;;;;;;;;;;;;;22.03;100.00;-18618.94;4982951;28;19921;-83
2023/05/07 11:30:01;;;;;;;;;;;;;;;21.93;100.00;-18616.09;4972413;28;19914;-83
2023/05/07 11:32:31;;;;;;;;;;;;;;;22.13;100.00;-18621.53;4985793;28;19913;-81
2023/05/07 11:34:57;;;;;;;;;;;;;;;22.23;100.00;-18624.13;4972108;28;19976;-84
2023/05/07 11:37:23;;;;;;;;;;;;;;;22.53;100.00;-18632.28;4978390;28;19922;-84
2023/05/07 11:39:51;;;;;;;;;;;;;;;22.55;100.00;-18632.66;4979086;28;20305;-83
2023/05/07 11:42:33;;;;;;;;;;;;;;;22.51;100.00;-18631.59;4977302;28;19985;-82
2023/05/07 11:44:59;;;;;;;;;;;;;;;22.66;100.00;-18635.66;4995232;28;19966;-82
2023/05/07 11:47:25;;;;;;;;;;;;;;;22.37;100.00;-18627.78;4980370;28;20004;-80
2023/05/07 11:49:54;;;;;;;;;;;;;;;22.21;100.00;-18623.72;4976890;28;19940;-83
2023/05/07 11:52:20;;;;;;;;;;;;;;;22.36;100.00;-18627.53;4980396;28;19914;-82
2023/05/07 11:54:48;;;;;;;;;;;;;;;22.26;100.00;-18624.94;4975581;28;19922;-83
2023/05/07 11:57:14;;;;;;;;;;;;;;;22.18;100.00;-18622.91;4985637;28;19965;-83
2023/05/07 11:59:44;;;;;;;;;;;;;;;22.22;100.00;-18623.84;4979559;28;19918;-80
2023/05/07 12:02:09;;;;;;;;;;;;;;;22.28;100.00;-18625.63;4990521;28;19922;-80
2023/05/07 12:04:35;;;;;;;;;;;;;;;22.23;100.00;-18624.25;4999572;28;19947;-82
2023/05/07 12:07:00;;;;;;;;;;;;;;;22.55;100.00;-18632.66;4988000;28;19941;-83
2023/05/07 12:09:26;;;;;;;;;;;;;;;22.63;100.00;-18634.72;4994897;28;19921;-83
2023/05/07 12:11:51;;;;;;;;;;;;;;;22.69;100.00;-18636.47;4987941;28;19913;-83
2023/05/07 12:14:16;;;;;;;;;;;;;;;22.81;100.00;-18639.47;4988423;28;19965;-83
2023/05/07 12:16:42;;;;;;;;;;;;;;;22.92;100.00;-18642.44;4984061;28;20452;-82
2023/05/07 12:19:08;;;;;;;;;;;;;;;22.98;100.00;-18644.06;4988890;28;19924;-83
2023/05/07 12:21:34;;;;;;;;;;;;;;;23.07;100.00;-18646.53;4986062;28;19981;-83
2023/05/07 12:24:00;;;;;;;;;;;;;;;23.03;100.00;-18645.44;4991025;28;19961;-82